sensor_id;sensor_type;location;lat;lon;timestamp;pressure;altitude;pressure_sealevel;temperature
61595;BMP280;47397;48.194;11.632;2024-03-25T00:00:14;95119.69;;;4.25
61595;BMP280;47397;48.194;11.632;2024-03-25T00:01:14;95120.50;;;4.26
61595;BMP280;47397;48.194;11.632;2024-03-25T00:02:15;95114.72;;;4.19
61595;BMP280;47397;48.194;11.632;2024-03-25T00:03:15;95113.84;;;4.22
61595;BMP280;47397;48.194;11.632;2024-03-25T00:04:15;95111.34;;;4.22
61595;BMP280;47397;48.194;11.632;2024-03-25T00:05:17;95113.94;;;4.14
61595;BMP280;47397;48.194;11.632;2024-03-25T00:06:17;95113.91;;;4.17
61595;BMP280;47397;48.194;11.632;2024-03-25T00:07:18;95106.38;;;4.17
61595;BMP280;47397;48.194;11.632;2024-03-25T00:08:18;95114.72;;;4.19
61595;BMP280;47397;48.194;11.632;2024-03-25T00:09:18;95119.75;;;4.19
61595;BMP280;47397;48.194;11.632;2024-03-25T00:10:19;95118.88;;;4.22
61595;BMP280;47397;48.194;11.632;2024-03-25T00:11:19;95110.50;;;4.23
61595;BMP280;47397;48.194;11.632;2024-03-25T00:12:20;95115.47;;;4.26
61595;BMP280;47397;48.194;11.632;2024-03-25T00:13:20;95115.44;;;4.29
61595;BMP280;47397;48.194;11.632;2024-03-25T00:14:20;95109.69;;;4.19
61595;BMP280;47397;48.194;11.632;2024-03-25T00:15:21;95114.63;;;4.27
61595;BMP280;47397;48.194;11.632;2024-03-25T00:16:21;95120.47;;;4.29
61595;BMP280;47397;48.194;11.632;2024-03-25T00:17:21;95115.50;;;4.24
61595;BMP280;47397;48.194;11.632;2024-03-25T00:18:22;95118.81;;;4.26
61595;BMP280;47397;48.194;11.632;2024-03-25T00:19:22;95110.50;;;4.21
61595;BMP280;47397;48.194;11.632;2024-03-25T00:20:24;95109.56;;;4.28
61595;BMP280;47397;48.194;11.632;2024-03-25T00:21:24;95114.59;;;4.30
61595;BMP280;47397;48.194;11.632;2024-03-25T00:22:24;95109.63;;;4.24
61595;BMP280;47397;48.194;11.632;2024-03-25T00:23:25;95116.28;;;4.29
61595;BMP280;47397;48.194;11.632;2024-03-25T00:24:25;95118.88;;;4.22
61595;BMP280;47397;48.194;11.632;2024-03-25T00:25:25;95116.41;;;4.19
61595;BMP280;47397;48.194;11.632;2024-03-25T00:26:26;95116.34;;;4.23
61595;BMP280;47397;48.194;11.632;2024-03-25T00:27:26;95112.97;;;4.24
61595;BMP280;47397;48.194;11.632;2024-03-25T00:28:26;95120.50;;;4.26
61595;BMP280;47397;48.194;11.632;2024-03-25T00:29:27;95114.66;;;4.24
61595;BMP280;47397;48.194;11.632;2024-03-25T00:30:27;95117.94;;;4.29
61595;BMP280;47397;48.194;11.632;2024-03-25T00:31:27;95118.78;;;4.29
61595;BMP280;47397;48.194;11.632;2024-03-25T00:32:28;95118.84;;;4.25
61595;BMP280;47397;48.194;11.632;2024-03-25T00:33:28;95117.13;;;4.28
61595;BMP280;47397;48.194;11.632;2024-03-25T00:34:28;95121.31;;;4.29
61595;BMP280;47397;48.194;11.632;2024-03-25T00:35:30;95112.88;;;4.32
61595;BMP280;47397;48.194;11.632;2024-03-25T00:36:30;95121.25;;;4.34
61595;BMP280;47397;48.194;11.632;2024-03-25T00:37:31;95119.59;;;4.31
61595;BMP280;47397;48.194;11.632;2024-03-25T00:38:31;95113.69;;;4.34
61595;BMP280;47397;48.194;11.632;2024-03-25T00:39:31;95118.75;;;4.31
61595;BMP280;47397;48.194;11.632;2024-03-25T00:40:32;95117.94;;;4.30
61595;BMP280;47397;48.194;11.632;2024-03-25T00:41:32;95112.09;;;4.28
61595;BMP280;47397;48.194;11.632;2024-03-25T00:42:32;95113.78;;;4.26
61595;BMP280;47397;48.194;11.632;2024-03-25T00:43:33;95115.53;;;4.21
61595;BMP280;47397;48.194;11.632;2024-03-25T00:44:33;95109.63;;;4.24
61595;BMP280;47397;48.194;11.632;2024-03-25T00:45:33;95108.69;;;4.31
61595;BMP280;47397;48.194;11.632;2024-03-25T00:46:34;95106.28;;;4.23
61595;BMP280;47397;48.194;11.632;2024-03-25T00:47:34;95110.44;;;4.27
61595;BMP280;47397;48.194;11.632;2024-03-25T00:48:35;95115.44;;;4.29
61595;BMP280;47397;48.194;11.632;2024-03-25T00:49:35;95105.47;;;4.23
61595;BMP280;47397;48.194;11.632;2024-03-25T00:50:37;95107.91;;;4.27
61595;BMP280;47397;48.194;11.632;2024-03-25T00:51:37;95111.25;;;4.28
61595;BMP280;47397;48.194;11.632;2024-03-25T00:52:37;95110.44;;;4.27
61595;BMP280;47397;48.194;11.632;2024-03-25T00:53:38;95108.75;;;4.28
61595;BMP280;47397;48.194;11.632;2024-03-25T00:54:38;95107.94;;;4.24
61595;BMP280;47397;48.194;11.632;2024-03-25T00:55:38;95099.56;;;4.25
61595;BMP280;47397;48.194;11.632;2024-03-25T00:56:39;95104.59;;;4.24
61595;BMP280;47397;48.194;11.632;2024-03-25T00:57:39;95107.91;;;4.27
61595;BMP280;47397;48.194;11.632;2024-03-25T00:58:39;95106.22;;;4.28
61595;BMP280;47397;48.194;11.632;2024-03-25T00:59:40;95103.72;;;4.28
61595;BMP280;47397;48.194;11.632;2024-03-25T01:00:40;95098.78;;;4.20
61595;BMP280;47397;48.194;11.632;2024-03-25T01:01:40;95101.22;;;4.26
61595;BMP280;47397;48.194;11.632;2024-03-25T01:02:41;95105.38;;;4.29
61595;BMP280;47397;48.194;11.632;2024-03-25T01:03:41;95099.53;;;4.27
61595;BMP280;47397;48.194;11.632;2024-03-25T01:04:41;95100.34;;;4.29
61595;BMP280;47397;48.194;11.632;2024-03-25T01:05:43;95101.28;;;4.20
61595;BMP280;47397;48.194;11.632;2024-03-25T01:06:43;95093.72;;;4.23
61595;BMP280;47397;48.194;11.632;2024-03-25T01:07:44;95099.63;;;4.21
61595;BMP280;47397;48.194;11.632;2024-03-25T01:08:44;95095.41;;;4.21
61595;BMP280;47397;48.194;11.632;2024-03-25T01:09:44;95096.16;;;4.28
61595;BMP280;47397;48.194;11.632;2024-03-25T01:10:45;95093.69;;;4.25
61595;BMP280;47397;48.194;11.632;2024-03-25T01:11:45;95090.34;;;4.24
61595;BMP280;47397;48.194;11.632;2024-03-25T01:12:45;95101.28;;;4.20
61595;BMP280;47397;48.194;11.632;2024-03-25T01:13:45;95105.50;;;4.20
61595;BMP280;47397;48.194;11.632;2024-03-25T01:14:46;95098.81;;;4.17
61595;BMP280;47397;48.194;11.632;2024-03-25T01:15:46;95104.63;;;4.21
61595;BMP280;47397;48.194;11.632;2024-03-25T01:16:46;95085.22;;;4.32
61595;BMP280;47397;48.194;11.632;2024-03-25T01:17:47;95099.66;;;4.16
61595;BMP280;47397;48.194;11.632;2024-03-25T01:18:47;95092.97;;;4.15
61595;BMP280;47397;48.194;11.632;2024-03-25T01:19:47;95103.81;;;4.20
61595;BMP280;47397;48.194;11.632;2024-03-25T01:20:49;95100.53;;;4.14
61595;BMP280;47397;48.194;11.632;2024-03-25T01:21:49;95092.13;;;4.16
61595;BMP280;47397;48.194;11.632;2024-03-25T01:22:50;95103.00;;;4.17
61595;BMP280;47397;48.194;11.632;2024-03-25T01:23:50;95097.13;;;4.18
61595;BMP280;47397;48.194;11.632;2024-03-25T01:24:50;95094.59;;;4.19
61595;BMP280;47397;48.194;11.632;2024-03-25T01:25:51;95101.34;;;4.17
61595;BMP280;47397;48.194;11.632;2024-03-25T01:26:51;95096.28;;;4.20
61595;BMP280;47397;48.194;11.632;2024-03-25T01:27:51;95099.59;;;4.22
61595;BMP280;47397;48.194;11.632;2024-03-25T01:28:52;95099.72;;;4.13
61595;BMP280;47397;48.194;11.632;2024-03-25T01:29:52;95098.84;;;4.16
61595;BMP280;47397;48.194;11.632;2024-03-25T01:30:53;95099.69;;;4.15
61595;BMP280;47397;48.194;11.632;2024-03-25T01:31:53;95096.31;;;4.17
61595;BMP280;47397;48.194;11.632;2024-03-25T01:32:53;95112.25;;;4.15
61595;BMP280;47397;48.194;11.632;2024-03-25T01:33:54;95099.66;;;4.16
61595;BMP280;47397;48.194;11.632;2024-03-25T01:34:54;95098.00;;;4.15
61595;BMP280;47397;48.194;11.632;2024-03-25T01:35:56;95101.28;;;4.20
61595;BMP280;47397;48.194;11.632;2024-03-25T01:36:56;95100.44;;;4.23
61595;BMP280;47397;48.194;11.632;2024-03-25T01:37:56;95092.09;;;4.18
61595;BMP280;47397;48.194;11.632;2024-03-25T01:38:57;95092.94;;;4.18
61595;BMP280;47397;48.194;11.632;2024-03-25T01:39:57;95101.34;;;4.16
61595;BMP280;47397;48.194;11.632;2024-03-25T01:41:07;95095.44;;;4.18
61595;BMP280;47397;48.194;11.632;2024-03-25T01:42:07;95098.81;;;4.17
61595;BMP280;47397;48.194;11.632;2024-03-25T01:43:07;95093.03;;;4.12
61595;BMP280;47397;48.194;11.632;2024-03-25T01:44:08;95099.66;;;4.18
61595;BMP280;47397;48.194;11.632;2024-03-25T01:45:08;95098.03;;;4.12
61595;BMP280;47397;48.194;11.632;2024-03-25T01:46:09;95097.28;;;4.04
61595;BMP280;47397;48.194;11.632;2024-03-25T01:47:09;95091.34;;;4.08
61595;BMP280;47397;48.194;11.632;2024-03-25T01:48:10;95091.38;;;4.10
61595;BMP280;47397;48.194;11.632;2024-03-25T01:49:11;95095.56;;;4.07
61595;BMP280;47397;48.194;11.632;2024-03-25T01:50:11;95097.25;;;4.07
61595;BMP280;47397;48.194;11.632;2024-03-25T01:51:16;95092.19;;;4.10
61595;BMP280;47397;48.194;11.632;2024-03-25T01:52:17;95104.00;;;4.03
61595;BMP280;47397;48.194;11.632;2024-03-25T01:53:17;95097.31;;;4.01
61595;BMP280;47397;48.194;11.632;2024-03-25T01:54:18;95103.16;;;4.01
61595;BMP280;47397;48.194;11.632;2024-03-25T01:55:21;95098.16;;;4.01
61595;BMP280;47397;48.194;11.632;2024-03-25T01:56:23;95105.63;;;4.06
61595;BMP280;47397;48.194;11.632;2024-03-25T01:57:24;95113.25;;;3.98
61595;BMP280;47397;48.194;11.632;2024-03-25T01:58:25;95104.00;;;4.03
61595;BMP280;47397;48.194;11.632;2024-03-25T01:59:26;95103.13;;;4.04
61595;BMP280;47397;48.194;11.632;2024-03-25T02:00:27;95113.19;;;4.06
61595;BMP280;47397;48.194;11.632;2024-03-25T02:01:28;95108.19;;;4.01
61595;BMP280;47397;48.194;11.632;2024-03-25T02:02:29;95117.38;;;4.04
61595;BMP280;47397;48.194;11.632;2024-03-25T02:03:29;95108.19;;;4.03
61595;BMP280;47397;48.194;11.632;2024-03-25T02:04:31;95105.66;;;4.04
61595;BMP280;47397;48.194;11.632;2024-03-25T02:05:31;95107.34;;;4.04
61595;BMP280;47397;48.194;11.632;2024-03-25T02:06:34;95107.34;;;4.02
61595;BMP280;47397;48.194;11.632;2024-03-25T02:07:36;95107.47;;;3.93
61595;BMP280;47397;48.194;11.632;2024-03-25T02:08:36;95099.00;;;3.99
61595;BMP280;47397;48.194;11.632;2024-03-25T02:09:36;95101.53;;;3.99
61595;BMP280;47397;48.194;11.632;2024-03-25T02:10:38;95104.81;;;4.04
61595;BMP280;47397;48.194;11.632;2024-03-25T02:11:39;95099.81;;;4.02
61595;BMP280;47397;48.194;11.632;2024-03-25T02:12:40;95102.31;;;4.04
61595;BMP280;47397;48.194;11.632;2024-03-25T02:13:41;95104.13;;;3.93
61595;BMP280;47397;48.194;11.632;2024-03-25T02:14:41;95100.69;;;4.00
61595;BMP280;47397;48.194;11.632;2024-03-25T02:15:41;95098.28;;;3.91
61595;BMP280;47397;48.194;11.632;2024-03-25T02:16:42;95103.25;;;3.94
61595;BMP280;47397;48.194;11.632;2024-03-25T02:18:53;95095.75;;;3.91
61595;BMP280;47397;48.194;11.632;2024-03-25T02:19:54;95098.28;;;3.89
61595;BMP280;47397;48.194;11.632;2024-03-25T02:20:54;95096.56;;;3.93
61595;BMP280;47397;48.194;11.632;2024-03-25T02:21:56;95096.66;;;3.87
61595;BMP280;47397;48.194;11.632;2024-03-25T02:22:56;95089.00;;;3.94
61595;BMP280;47397;48.194;11.632;2024-03-25T02:23:59;95099.06;;;3.96
61595;BMP280;47397;48.194;11.632;2024-03-25T02:25:00;95099.94;;;3.92
61595;BMP280;47397;48.194;11.632;2024-03-25T02:26:02;95086.53;;;3.91
61595;BMP280;47397;48.194;11.632;2024-03-25T02:27:03;95096.63;;;3.88
61595;BMP280;47397;48.194;11.632;2024-03-25T02:28:04;95084.97;;;3.83
61595;BMP280;47397;48.194;11.632;2024-03-25T02:29:04;95097.56;;;3.80
61595;BMP280;47397;48.194;11.632;2024-03-25T02:30:05;95101.72;;;3.84
61595;BMP280;47397;48.194;11.632;2024-03-25T02:31:06;95095.00;;;3.83
61595;BMP280;47397;48.194;11.632;2024-03-25T02:32:06;95094.19;;;3.82
61595;BMP280;47397;48.194;11.632;2024-03-25T02:33:07;95098.22;;;3.94
61595;BMP280;47397;48.194;11.632;2024-03-25T02:34:07;95094.06;;;3.93
61595;BMP280;47397;48.194;11.632;2024-03-25T02:35:10;95099.06;;;3.96
61595;BMP280;47397;48.194;11.632;2024-03-25T02:36:11;95097.47;;;3.89
61595;BMP280;47397;48.194;11.632;2024-03-25T02:37:12;95089.09;;;3.87
61595;BMP280;47397;48.194;11.632;2024-03-25T02:38:12;95091.66;;;3.84
61595;BMP280;47397;48.194;11.632;2024-03-25T02:39:13;95099.94;;;3.92
61595;BMP280;47397;48.194;11.632;2024-03-25T02:40:14;95103.28;;;3.91
61595;BMP280;47397;48.194;11.632;2024-03-25T02:41:15;95092.47;;;3.86
61595;BMP280;47397;48.194;11.632;2024-03-25T02:42:16;95087.47;;;3.84
61595;BMP280;47397;48.194;11.632;2024-03-25T02:43:18;95096.66;;;3.87
61595;BMP280;47397;48.194;11.632;2024-03-25T02:44:18;95100.81;;;3.88
61595;BMP280;47397;48.194;11.632;2024-03-25T02:45:19;95094.09;;;3.90
61595;BMP280;47397;48.194;11.632;2024-03-25T02:46:19;95094.94;;;3.89
61595;BMP280;47397;48.194;11.632;2024-03-25T02:47:20;95094.94;;;3.89
61595;BMP280;47397;48.194;11.632;2024-03-25T02:48:21;95098.22;;;3.95
61595;BMP280;47397;48.194;11.632;2024-03-25T02:49:21;95089.84;;;3.95
61595;BMP280;47397;48.194;11.632;2024-03-25T02:50:21;95108.31;;;3.92
61595;BMP280;47397;48.194;11.632;2024-03-25T02:51:22;95094.09;;;3.90
61595;BMP280;47397;48.194;11.632;2024-03-25T02:52:22;95094.09;;;3.90
61595;BMP280;47397;48.194;11.632;2024-03-25T02:53:23;95106.63;;;3.93
61595;BMP280;47397;48.194;11.632;2024-03-25T02:54:23;95099.13;;;3.88
61595;BMP280;47397;48.194;11.632;2024-03-25T02:55:24;95095.78;;;3.88
61595;BMP280;47397;48.194;11.632;2024-03-25T02:56:25;95094.84;;;3.98
61595;BMP280;47397;48.194;11.632;2024-03-25T02:57:26;95103.22;;;3.97
61595;BMP280;47397;48.194;11.632;2024-03-25T02:58:26;95099.03;;;3.97
61595;BMP280;47397;48.194;11.632;2024-03-25T02:59:26;95095.69;;;3.97
61595;BMP280;47397;48.194;11.632;2024-03-25T03:00:27;95096.59;;;3.90
61595;BMP280;47397;48.194;11.632;2024-03-25T03:01:27;95099.09;;;3.91
61595;BMP280;47397;48.194;11.632;2024-03-25T03:02:28;95101.53;;;3.99
61595;BMP280;47397;48.194;11.632;2024-03-25T03:03:28;95098.19;;;3.97
61595;BMP280;47397;48.194;11.632;2024-03-25T03:04:28;95104.94;;;3.93
61595;BMP280;47397;48.194;11.632;2024-03-25T03:05:29;95098.22;;;3.94
61595;BMP280;47397;48.194;11.632;2024-03-25T03:06:29;95108.38;;;3.88
61595;BMP280;47397;48.194;11.632;2024-03-25T03:07:30;95103.34;;;3.88
61595;BMP280;47397;48.194;11.632;2024-03-25T03:08:30;95101.59;;;3.94
61595;BMP280;47397;48.194;11.632;2024-03-25T03:09:31;95102.44;;;3.93
61595;BMP280;47397;48.194;11.632;2024-03-25T03:10:31;95111.63;;;3.94
61595;BMP280;47397;48.194;11.632;2024-03-25T03:11:33;95104.94;;;3.93
61595;BMP280;47397;48.194;11.632;2024-03-25T03:12:33;95105.00;;;3.89
61595;BMP280;47397;48.194;11.632;2024-03-25T03:13:33;95104.97;;;3.92
61595;BMP280;47397;48.194;11.632;2024-03-25T03:14:34;95101.56;;;3.96
61595;BMP280;47397;48.194;11.632;2024-03-25T03:15:34;95103.25;;;3.95
61595;BMP280;47397;48.194;11.632;2024-03-25T03:16:35;95104.06;;;3.97
61595;BMP280;47397;48.194;11.632;2024-03-25T03:17:35;95109.09;;;3.96
61595;BMP280;47397;48.194;11.632;2024-03-25T03:18:35;95101.56;;;3.96
61595;BMP280;47397;48.194;11.632;2024-03-25T03:19:36;95106.56;;;3.99
61595;BMP280;47397;48.194;11.632;2024-03-25T03:20:36;95113.25;;;4.00
61595;BMP280;47397;48.194;11.632;2024-03-25T03:21:37;95107.38;;;4.01
61595;BMP280;47397;48.194;11.632;2024-03-25T03:22:37;95097.34;;;3.98
61595;BMP280;47397;48.194;11.632;2024-03-25T03:23:37;95105.75;;;3.97
61595;BMP280;47397;48.194;11.632;2024-03-25T03:24:38;95110.72;;;4.00
61595;BMP280;47397;48.194;11.632;2024-03-25T03:25:38;95108.22;;;4.00
61595;BMP280;47397;48.194;11.632;2024-03-25T03:26:40;95106.56;;;3.99
61595;BMP280;47397;48.194;11.632;2024-03-25T03:27:40;95109.06;;;4.00
61595;BMP280;47397;48.194;11.632;2024-03-25T03:28:41;95099.88;;;3.96
61595;BMP280;47397;48.194;11.632;2024-03-25T03:29:41;95098.22;;;3.94
61595;BMP280;47397;48.194;11.632;2024-03-25T03:30:41;95112.38;;;4.02
61595;BMP280;47397;48.194;11.632;2024-03-25T03:31:43;95102.34;;;3.99
61595;BMP280;47397;48.194;11.632;2024-03-25T03:32:44;95108.22;;;4.00
61595;BMP280;47397;48.194;11.632;2024-03-25T03:33:44;95102.34;;;4.01
61595;BMP280;47397;48.194;11.632;2024-03-25T03:34:44;95109.09;;;3.97
61595;BMP280;47397;48.194;11.632;2024-03-25T03:35:45;95115.75;;;4.00
61595;BMP280;47397;48.194;11.632;2024-03-25T03:36:45;95110.81;;;3.94
61595;BMP280;47397;48.194;11.632;2024-03-25T03:37:45;95107.41;;;3.98
61595;BMP280;47397;48.194;11.632;2024-03-25T03:38:50;95106.56;;;3.99
61595;BMP280;47397;48.194;11.632;2024-03-25T03:39:50;95109.09;;;3.97
61595;BMP280;47397;48.194;11.632;2024-03-25T03:40:57;95110.69;;;4.04
61595;BMP280;47397;48.194;11.632;2024-03-25T03:41:59;95116.56;;;4.02
61595;BMP280;47397;48.194;11.632;2024-03-25T03:43:00;95116.63;;;3.97
61595;BMP280;47397;48.194;11.632;2024-03-25T03:44:00;95117.44;;;3.99
61595;BMP280;47397;48.194;11.632;2024-03-25T03:45:00;95110.81;;;3.94
61595;BMP280;47397;48.194;11.632;2024-03-25T03:46:01;95110.72;;;4.01
61595;BMP280;47397;48.194;11.632;2024-03-25T03:47:01;95109.09;;;3.97
61595;BMP280;47397;48.194;11.632;2024-03-25T03:48:02;95115.78;;;3.97
61595;BMP280;47397;48.194;11.632;2024-03-25T03:49:02;95115.06;;;3.89
61595;BMP280;47397;48.194;11.632;2024-03-25T03:50:04;95119.16;;;3.97
61595;BMP280;47397;48.194;11.632;2024-03-25T03:51:04;95120.88;;;3.92
61595;BMP280;47397;48.194;11.632;2024-03-25T03:52:05;95119.19;;;3.94
61595;BMP280;47397;48.194;11.632;2024-03-25T03:53:06;95119.19;;;3.94
61595;BMP280;47397;48.194;11.632;2024-03-25T03:54:06;95119.16;;;3.96
61595;BMP280;47397;48.194;11.632;2024-03-25T03:55:07;95114.97;;;3.96
61595;BMP280;47397;48.194;11.632;2024-03-25T03:56:07;95115.88;;;3.89
61595;BMP280;47397;48.194;11.632;2024-03-25T03:57:09;95115.03;;;3.90
61595;BMP280;47397;48.194;11.632;2024-03-25T03:58:09;95123.41;;;3.91
61595;BMP280;47397;48.194;11.632;2024-03-25T03:59:10;95108.31;;;3.91
61595;BMP280;47397;48.194;11.632;2024-03-25T04:00:11;95117.47;;;3.96
61595;BMP280;47397;48.194;11.632;2024-03-25T04:01:16;95118.38;;;3.91
61595;BMP280;47397;48.194;11.632;2024-03-25T04:02:16;95113.38;;;3.88
61595;BMP280;47397;48.194;11.632;2024-03-25T04:03:17;95120.97;;;3.83
61595;BMP280;47397;48.194;11.632;2024-03-25T04:04:17;95116.81;;;3.82
61595;BMP280;47397;48.194;11.632;2024-03-25T04:05:18;95121.06;;;3.75
61595;BMP280;47397;48.194;11.632;2024-03-25T04:06:18;95114.34;;;3.78
61595;BMP280;47397;48.194;11.632;2024-03-25T04:07:18;95120.16;;;3.81
61595;BMP280;47397;48.194;11.632;2024-03-25T04:08:19;95109.25;;;3.84
61595;BMP280;47397;48.194;11.632;2024-03-25T04:09:19;95114.25;;;3.87
61595;BMP280;47397;48.194;11.632;2024-03-25T04:10:20;95117.66;;;3.80
61595;BMP280;47397;48.194;11.632;2024-03-25T04:11:20;95120.16;;;3.83
61595;BMP280;47397;48.194;11.632;2024-03-25T04:12:22;95124.34;;;3.82
61595;BMP280;47397;48.194;11.632;2024-03-25T04:13:22;95121.09;;;3.72
61595;BMP280;47397;48.194;11.632;2024-03-25T04:14:23;95111.22;;;3.51
61595;BMP280;47397;48.194;11.632;2024-03-25T04:15:23;95126.22;;;3.60
61595;BMP280;47397;48.194;11.632;2024-03-25T04:16:24;95127.09;;;3.55
61595;BMP280;47397;48.194;11.632;2024-03-25T04:17:24;95115.38;;;3.55
61595;BMP280;47397;48.194;11.632;2024-03-25T04:18:25;95117.13;;;3.47
61595;BMP280;47397;48.194;11.632;2024-03-25T04:19:25;95117.91;;;3.54
61595;BMP280;47397;48.194;11.632;2024-03-25T04:20:26;95125.41;;;3.58
61595;BMP280;47397;48.194;11.632;2024-03-25T04:21:26;95122.03;;;3.59
61595;BMP280;47397;48.194;11.632;2024-03-25T04:22:27;95125.44;;;3.55
61595;BMP280;47397;48.194;11.632;2024-03-25T04:23:27;95125.50;;;3.49
61595;BMP280;47397;48.194;11.632;2024-03-25T04:24:28;95117.94;;;3.51
61595;BMP280;47397;48.194;11.632;2024-03-25T04:25:28;95127.09;;;3.55
61595;BMP280;47397;48.194;11.632;2024-03-25T04:26:28;95125.47;;;3.51
61595;BMP280;47397;48.194;11.632;2024-03-25T04:27:30;95131.34;;;3.50
61595;BMP280;47397;48.194;11.632;2024-03-25T04:28:31;95119.63;;;3.50
61595;BMP280;47397;48.194;11.632;2024-03-25T04:29:31;95125.50;;;3.48
61595;BMP280;47397;48.194;11.632;2024-03-25T04:30:31;95133.00;;;3.51
61595;BMP280;47397;48.194;11.632;2024-03-25T04:31:32;95134.59;;;3.59
61595;BMP280;47397;48.194;11.632;2024-03-25T04:32:32;95134.69;;;3.52
61595;BMP280;47397;48.194;11.632;2024-03-25T04:33:33;95131.31;;;3.54
61595;BMP280;47397;48.194;11.632;2024-03-25T04:34:33;95128.03;;;3.46
61595;BMP280;47397;48.194;11.632;2024-03-25T04:35:34;95138.91;;;3.48
61595;BMP280;47397;48.194;11.632;2024-03-25T04:36:35;95137.19;;;3.50
61595;BMP280;47397;48.194;11.632;2024-03-25T04:37:35;95135.53;;;3.49
61595;BMP280;47397;48.194;11.632;2024-03-25T04:38:36;95136.41;;;3.45
61595;BMP280;47397;48.194;11.632;2024-03-25T04:39:36;95138.94;;;3.45
61595;BMP280;47397;48.194;11.632;2024-03-25T04:40:39;95141.50;;;3.34
61595;BMP280;47397;48.194;11.632;2024-03-25T04:41:40;95137.31;;;3.38
61595;BMP280;47397;48.194;11.632;2024-03-25T04:42:41;95138.13;;;3.40
61595;BMP280;47397;48.194;11.632;2024-03-25T04:43:42;95144.81;;;3.41
61595;BMP280;47397;48.194;11.632;2024-03-25T04:44:42;95141.47;;;3.40
61595;BMP280;47397;48.194;11.632;2024-03-25T04:45:43;95142.31;;;3.39
61595;BMP280;47397;48.194;11.632;2024-03-25T04:46:43;95135.66;;;3.37
61595;BMP280;47397;48.194;11.632;2024-03-25T04:47:44;95138.97;;;3.40
61595;BMP280;47397;48.194;11.632;2024-03-25T04:48:44;95138.94;;;3.42
61595;BMP280;47397;48.194;11.632;2024-03-25T04:49:45;95136.38;;;3.48
61595;BMP280;47397;48.194;11.632;2024-03-25T04:50:45;95143.84;;;3.54
61595;BMP280;47397;48.194;11.632;2024-03-25T04:51:45;95143.06;;;3.51
61595;BMP280;47397;48.194;11.632;2024-03-25T04:52:49;95148.91;;;3.51
61595;BMP280;47397;48.194;11.632;2024-03-25T04:53:49;95139.78;;;3.42
61595;BMP280;47397;48.194;11.632;2024-03-25T04:54:50;95141.50;;;3.37
61595;BMP280;47397;48.194;11.632;2024-03-25T04:55:50;95142.28;;;3.44
61595;BMP280;47397;48.194;11.632;2024-03-25T04:56:50;95134.91;;;3.24
61595;BMP280;47397;48.194;11.632;2024-03-25T04:57:53;95137.38;;;3.26
61595;BMP280;47397;48.194;11.632;2024-03-25T04:58:53;95139.09;;;3.24
61595;BMP280;47397;48.194;11.632;2024-03-25T04:59:56;95141.53;;;3.30
61595;BMP280;47397;48.194;11.632;2024-03-25T05:00:57;95144.03;;;3.33
61595;BMP280;47397;48.194;11.632;2024-03-25T05:01:57;95139.88;;;3.29
61595;BMP280;47397;48.194;11.632;2024-03-25T05:02:57;95139.88;;;3.27
61595;BMP280;47397;48.194;11.632;2024-03-25T05:03:58;95141.56;;;3.28
61595;BMP280;47397;48.194;11.632;2024-03-25T05:05:02;95139.84;;;3.35
61595;BMP280;47397;48.194;11.632;2024-03-25T05:06:02;95140.69;;;3.31
61595;BMP280;47397;48.194;11.632;2024-03-25T05:07:04;95144.03;;;3.33
61595;BMP280;47397;48.194;11.632;2024-03-25T05:08:05;95143.16;;;3.38
61595;BMP280;47397;48.194;11.632;2024-03-25T05:09:06;95149.03;;;3.34
61595;BMP280;47397;48.194;11.632;2024-03-25T05:10:07;95143.19;;;3.35
61595;BMP280;47397;48.194;11.632;2024-03-25T05:11:07;95149.97;;;3.23
61595;BMP280;47397;48.194;11.632;2024-03-25T05:12:08;95150.75;;;3.28
61595;BMP280;47397;48.194;11.632;2024-03-25T05:13:10;95149.97;;;3.24
61595;BMP280;47397;48.194;11.632;2024-03-25T05:14:10;95153.31;;;3.25
61595;BMP280;47397;48.194;11.632;2024-03-25T05:15:11;95156.66;;;3.24
61595;BMP280;47397;48.194;11.632;2024-03-25T05:16:11;95161.66;;;3.25
61595;BMP280;47397;48.194;11.632;2024-03-25T05:17:12;95159.16;;;3.27
61595;BMP280;47397;48.194;11.632;2024-03-25T05:18:12;95160.00;;;3.24
61595;BMP280;47397;48.194;11.632;2024-03-25T05:19:18;95162.50;;;3.26
61595;BMP280;47397;48.194;11.632;2024-03-25T05:20:19;95165.03;;;3.23
61595;BMP280;47397;48.194;11.632;2024-03-25T05:21:19;95157.44;;;3.30
61595;BMP280;47397;48.194;11.632;2024-03-25T05:22:20;95162.50;;;3.27
61595;BMP280;47397;48.194;11.632;2024-03-25T05:23:20;95163.34;;;3.25
61595;BMP280;47397;48.194;11.632;2024-03-25T05:24:21;95170.94;;;3.19
61595;BMP280;47397;48.194;11.632;2024-03-25T05:25:21;95170.03;;;3.27
61595;BMP280;47397;48.194;11.632;2024-03-25T05:26:24;95167.50;;;3.27
61595;BMP280;47397;48.194;11.632;2024-03-25T05:27:24;95160.78;;;3.31
61595;BMP280;47397;48.194;11.632;2024-03-25T05:28:26;95166.56;;;3.43
61595;BMP280;47397;48.194;11.632;2024-03-25T05:29:27;95167.41;;;3.42
61595;BMP280;47397;48.194;11.632;2024-03-25T05:30:27;95163.28;;;3.37
61595;BMP280;47397;48.194;11.632;2024-03-25T05:31:28;95160.75;;;3.40
61595;BMP280;47397;48.194;11.632;2024-03-25T05:32:29;95175.81;;;3.40
61595;BMP280;47397;48.194;11.632;2024-03-25T05:33:29;95170.81;;;3.34
61595;BMP280;47397;48.194;11.632;2024-03-25T05:34:29;95164.09;;;3.37
61595;BMP280;47397;48.194;11.632;2024-03-25T05:35:30;95165.81;;;3.29
61595;BMP280;47397;48.194;11.632;2024-03-25T05:36:31;95175.06;;;3.26
61595;BMP280;47397;48.194;11.632;2024-03-25T05:37:31;95170.88;;;3.26
61595;BMP280;47397;48.194;11.632;2024-03-25T05:38:31;95179.25;;;3.24
61595;BMP280;47397;48.194;11.632;2024-03-25T05:39:32;95175.03;;;3.27
61595;BMP280;47397;48.194;11.632;2024-03-25T05:40:32;95174.16;;;3.33
61595;BMP280;47397;48.194;11.632;2024-03-25T05:41:33;95181.66;;;3.40
61595;BMP280;47397;48.194;11.632;2024-03-25T05:42:34;95167.41;;;3.42
61595;BMP280;47397;48.194;11.632;2024-03-25T05:43:35;95179.19;;;3.37
61595;BMP280;47397;48.194;11.632;2024-03-25T05:44:36;95184.19;;;3.39
61595;BMP280;47397;48.194;11.632;2024-03-25T05:45:37;95183.28;;;3.46
61595;BMP280;47397;48.194;11.632;2024-03-25T05:46:41;95172.47;;;3.38
61595;BMP280;47397;48.194;11.632;2024-03-25T05:47:42;95185.81;;;3.44
61595;BMP280;47397;48.194;11.632;2024-03-25T05:48:42;95187.50;;;3.44
61595;BMP280;47397;48.194;11.632;2024-03-25T05:49:42;95179.13;;;3.45
61595;BMP280;47397;48.194;11.632;2024-03-25T05:50:43;95185.00;;;3.42